METAR Data
IDs: Format: Raw Decoded Include TAF

Data at: 2044 UTC 18 Apr 2021

KOCF 181951Z VRB05KT 10SM SCT030 26/20 A2987 RMK AO2 SLP115 T02610200 $
KOCF 181851Z VRB04KT 10SM CLR 25/20 A2990 RMK AO2 SLP123 T02500200 $
KOCF 181751Z 00000KT 10SM CLR 23/20 A2991 RMK AO2 SLP129 60008 T02330200 10233 20189 56028 $
KOCF 181651Z 12003KT 10SM FEW070 22/19 A2993 RMK AO2 RAE00 SLP134 P0000 T02170189 $
KOCF 181551Z 08006KT 10SM -RA FEW014 BKN041 20/20 A2996 RMK AO2 RAB02E29B45 SLP144 P0001 T02000200 $
KOCF 181451Z 36010KT 10SM OVC043 19/19 A2999 RMK AO2 WSHFT 1338 LTG DSNT W TSE03RAE39 SLP156 P0007 60007 T01940194 53017 $
KOCF 181409Z 36009KT 9SM -RA FEW005 OVC039 19/19 A2998 RMK AO2 WSHFT 1338 LTG DSNT NE TSE03 P0007 $
KOCF 181358Z 04008KT 5SM VCTS RA BR FEW006 OVC041 19/19 A2994 RMK AO2 WSHFT 1338 LTG DSNT N AND NE PRESFR P0004 $
KOCF 181351Z 34014KT 10SM VCTS -RA FEW006 SCT035 OVC041 20/19 A2998 RMK AO2 PK WND 33027/1339 WSHFT 1334 LTG DSNT W-NE TSB22E39B46RAB17 SLP153 P0000 T02000194 $
KOCF 181328Z 22004KT 10SM VCTS -RA BKN041 OVC050 21/20 A2995 RMK AO2 LTG DSNT N AND SW TSB22RAB17 PRESRR P0000 $
KOCF 181251Z 13005KT 10SM SCT042 BKN055 BKN075 20/20 A2993 RMK AO2 LTG DSNT NW SLP135 T02000200 $
KOCF 181151Z 00000KT 10SM BKN044 19/19 A2994 RMK AO2 SLP138 60000 70016 T01940194 10194 20183 53014 $
KOCF 181051Z 00000KT 10SM SCT047 BKN085 19/19 A2991 RMK AO2 LTG DSNT NW SLP129 T01940194 $
KOCF 180951Z AUTO 19004KT 10SM OVC041 19/19 A2991 RMK AO2 SLP128 T01940194 $
KOCF 180859Z AUTO 19003KT 9SM FEW002 19/19 A2991 RMK AO2 $
KOCF 180851Z AUTO 17003KT 2SM BR FEW002 19/19 A2990 RMK AO2 SLP124 60000 T01890189 58005 $
KOCF 180849Z AUTO 17004KT 1 1/4SM BR FEW002 19/19 A2990 RMK AO2 $
KOCF 180834Z AUTO 19003KT 3/4SM BR VV002 19/19 A2990 RMK AO2 $
KOCF 180832Z AUTO 19003KT 1 1/2SM BR FEW002 19/19 A2991 RMK AO2 $
KOCF 180751Z AUTO 00000KT 10SM CLR 19/19 A2991 RMK AO2 RAB10E28 SLP126 P0000 T01940194 $
KOCF 180651Z AUTO 32007KT 10SM BKN045 OVC060 19/19 A2993 RMK AO2 PRESRR SLP135 T01940194 $
KOCF 180551Z AUTO 00000KT 10SM OVC049 19/19 A2991 RMK AO2 SLP129 60014 T01940194 10244 20194 56009 $
KOCF 180451Z AUTO 00000KT 10SM OVC047 19/19 A2992 RMK AO2 RAB02E17 SLP132 P0001 T01940194 $
KOCF 180351Z AUTO 11003KT 10SM OVC043 20/20 A2993 RMK AO2 RAE01 SLP133 P0000 T02000200 $
KOCF 180251Z AUTO 02008KT 10SM -RA SCT005 SCT028 OVC050 20/20 A2994 RMK AO2 LTG DSNT NE TSE47RAB22 SLP139 P0013 60013 T02000200 51028 $
KOCF 180248Z AUTO 01011KT 10SM -RA SCT007 BKN050 20/20 A2994 RMK AO2 LTG DSNT NE TSE47RAB22 P0013 $
KOCF 180247Z AUTO 01011KT 8SM -RA SCT007 BKN023 OVC050 20/20 A2994 RMK AO2 LTG DSNT NE TSE47RAB22 P0013 $
KOCF 180241Z AUTO 01012KT 3SM VCTS -RA BR SCT007 BKN014 OVC050 20/20 A2994 RMK AO2 LTG DSNT NE RAB22 P0013 $
KOCF 180233Z AUTO 36020G25KT 2 1/2SM VCTS +RA BR BKN007 BKN014 OVC024 21/21 A2993 RMK AO2 LTG DSNT NE RAB22 CIG 004V010 PRESRR P0011 $
KOCF 180226Z AUTO 35017KT 7SM -TSRA SCT008 BKN013 OVC023 21/21 A2992 RMK AO2 LTG DSNT NE AND E RAB22 PRESRR P0002 $
KOCF 180151Z AUTO 22007KT 10SM TS OVC017 24/23 A2986 RMK AO2 TSB46 SLP112 T02440228 $
KOCF 180051Z AUTO 23009KT 10SM BKN017 BKN027 OVC060 24/22 A2986 RMK AO2 LTG DSNT N AND NE SLP111 T02440222 $
KOCF 180034Z AUTO 22008KT 10SM BKN019 BKN026 OVC060 24/22 A2985 RMK AO2 LTG DSNT N AND NE $
KOCF 180026Z AUTO 22008KT 10SM SCT019 OVC060 24/22 A2985 RMK AO2 LTG DSNT NW-NE $
KOCF 172351Z 23009KT 10SM BKN019 BKN040 25/22 A2985 RMK AO2 LTG DSNT N AND NE SLP107 T02500222 10283 20250 402830183 53008 $
KOCF 172327Z 24009KT 10SM BKN021 26/22 A2984 RMK AO2 LTG DSNT NE $
KOCF 172251Z 23010KT 10SM FEW022 BKN050 BKN080 26/22 A2984 RMK AO2 LTG DSNT N SLP102 T02560222 $
KOCF 172240Z 23009KT 10SM FEW022 SCT038 BKN080 26/22 A2984 RMK AO2 LTG DSNT N $
KOCF 172151Z 23009KT 10SM BKN022 BKN085 27/22 A2983 RMK AO2 SLP101 T02670222 $
KOCF 172135Z 24013KT 10SM BKN025 OVC085 27/22 A2982 RMK AO2 $
KOCF 172127Z 23010G16KT 10SM SCT025 OVC085 27/22 A2983 RMK AO2 $
KOCF 172116Z 23011G17KT 10SM BKN023 OVC085 27/22 A2983 RMK AO2 $
KOCF 172051Z 24011KT 10SM SCT023 OVC080 27/22 A2983 RMK AO2 SLP099 T02720222 56011 $
KOCF 172029Z 24009KT 10SM SCT025 SCT030 BKN080 27/22 A2983 RMK AO2 $
KOCF 171951Z 25015G20KT 10SM BKN027 BKN033 28/22 A2983 RMK AO2 SLP101 T02780222 $
KOCF 171851Z 26007G14KT 10SM FEW024 BKN030 BKN060 28/22 A2985 RMK AO2 SLP106 T02780222 $
KOCF 171751Z 25009KT 10SM FEW026 BKN042 OVC055 27/22 A2986 RMK AO2 SLP110 60002 T02720217 10272 20189 58016 $
KOCF 171651Z 20005KT 10SM SCT017 26/22 A2987 RMK AO2 SLP114 T02610222 $
KOCF 171551Z 00000KT 10SM SCT075 24/22 A2990 RMK AO2 SLP124 T02440217 $
KOCF 171458Z 00000KT 10SM SCT004 22/21 A2991 RMK AO2 $
KOCF 171451Z 00000KT 10SM BKN006 22/21 A2990 RMK AO2 LTG DSNT SE SLP125 60002 T02170211 50014 $
KOCF 171351Z 00000KT 10SM OVC004 19/19 A2991 RMK AO2 SLP128 T01940194 $
KOCF 171251Z 01006KT 6SM BR BKN004 OVC012 19/19 A2989 RMK AO2 LTG DSNT S TSE19RAE45 SLP122 P0002 T01890189 $
KOCF 171225Z VRB04KT 6SM -RA BR BKN004 OVC012 19/19 A2989 RMK AO2 LTG DSNT E AND SE TSE19 CIG 003V008 P0001 $
KOCF 171151Z VRB04KT 6SM VCTS -RA BR BKN004 OVC017 21/21 A2986 RMK AO2 LTG DSNT SE-W TSE23B46 CIG 002V007 SLP112 P0056 60133 70133 T02060206 10206 20183 53013 $
KOCF 171129Z 35003KT 5SM -RA BR FEW008 BKN017 OVC045 21/21 A2986 RMK AO2 LTG DSNT ALQDS TSE23 P0054 $
KOCF 171118Z 35005KT 4SM -TSRA BR SCT006 BKN019 OVC044 21/21 A2985 RMK AO2 LTG DSNT E AND SW AND W P0051 $
KOCF 171114Z VRB03KT 2SM -TSRA BR SCT006 BKN011 OVC018 21/21 A2985 RMK AO2 LTG DSNT E AND SW AND W P0050 $
KOCF 171051Z AUTO 32009KT 1 1/2SM +TSRA BR BKN006 OVC013 21/21 A2984 RMK AO2 LTG DSNT ALQDS TSB0954E22B33 CIG 004V008 SLP104 P0058 T02060206 $
KOCF 171045Z AUTO 31007KT 1 3/4SM +TSRA BR BKN006 BKN011 OVC014 20/20 A2985 RMK AO2 VIS 1V4 LTG DSNT E AND SW AND W TSB0954E22B33 CIG 004V008 P0036 $
KOCF 171033Z AUTO 01004KT 3SM -TSRA BR BKN009 OVC013 20/20 A2984 RMK AO2 LTG DSNT E AND W TSB0954E22B33 CIG 006V010 P0016 $
KOCF 171022Z AUTO 03005KT 5SM RA BR OVC011 19/19 A2983 RMK AO2 LTG DSNT E AND W TSB0954E22 P0013 $
KOCF 171007Z AUTO 03003KT 2 1/2SM +TSRA BR FEW003 OVC008 19/19 A2983 RMK AO2 VIS 1 1/4V5 LTG DSNT W TSB0954 CIG 007V012 P0007 $
KOCF 171000Z AUTO 04003KT 5SM VCTS -RA BR FEW003 BKN010 OVC044 19/19 A2983 RMK AO2 LTG DSNT W TSB0954 CIG 007V015 P0002 $
KOCF 170951Z AUTO 36007KT 6SM RA BR SCT003 BKN012 OVC044 19/19 A2982 RMK AO2 LTG DSNT W AND NW TSB31E46 SLP098 P0006 T01940194 $
KOCF 170937Z AUTO 02004KT 6SM VCTS -RA BR FEW008 BKN024 OVC044 19/19 A2982 RMK AO2 LTG DSNT W AND NW TSB31 P0002 $
KOCF 170921Z AUTO 00000KT 10SM -RA FEW005 BKN010 OVC018 19/19 A2983 RMK AO2 LTG DSNT NE AND W CIG 008V015 P0002 $
KOCF 170913Z AUTO 33005KT 10SM -RA OVC008 19/19 A2983 RMK AO2 CIG 003V010 P0002 $
KOCF 170851Z AUTO 00000KT 7SM -RA OVC010 19/19 A2983 RMK AO2 LTG DSNT NE AND W CIG 008V013 SLP099 P0004 60013 T01940194 55008 $